sensor_id;sensor_type;location;lat;lon;timestamp;P1;durP1;ratioP1;P2;durP2;ratioP2
8482;SDS011;4278;42.668;23.312;2022-09-09T00:01:12;14.40;;;9.17;;
8482;SDS011;4278;42.668;23.312;2022-09-09T00:03:43;9.57;;;8.10;;
8482;SDS011;4278;42.668;23.312;2022-09-09T00:06:14;14.10;;;8.60;;
8482;SDS011;4278;42.668;23.312;2022-09-09T00:08:45;11.03;;;8.83;;
8482;SDS011;4278;42.668;23.312;2022-09-09T00:11:21;13.90;;;9.17;;
8482;SDS011;4278;42.668;23.312;2022-09-09T00:13:51;11.43;;;8.67;;
8482;SDS011;4278;42.668;23.312;2022-09-09T00:16:19;12.47;;;9.13;;
8482;SDS011;4278;42.668;23.312;2022-09-09T00:18:50;11.70;;;8.43;;
8482;SDS011;4278;42.668;23.312;2022-09-09T00:21:19;10.60;;;7.50;;
8482;SDS011;4278;42.668;23.312;2022-09-09T00:23:48;13.17;;;7.73;;
8482;SDS011;4278;42.668;23.312;2022-09-09T00:26:18;15.80;;;8.87;;
8482;SDS011;4278;42.668;23.312;2022-09-09T00:28:48;10.73;;;8.60;;
8482;SDS011;4278;42.668;23.312;2022-09-09T00:31:18;10.33;;;8.30;;
8482;SDS011;4278;42.668;23.312;2022-09-09T00:33:47;13.13;;;7.83;;
8482;SDS011;4278;42.668;23.312;2022-09-09T00:36:16;11.47;;;7.13;;
8482;SDS011;4278;42.668;23.312;2022-09-09T00:38:46;14.17;;;8.33;;
8482;SDS011;4278;42.668;23.312;2022-09-09T00:41:16;13.07;;;8.93;;
8482;SDS011;4278;42.668;23.312;2022-09-09T00:43:46;11.17;;;7.83;;
8482;SDS011;4278;42.668;23.312;2022-09-09T00:46:25;11.67;;;8.73;;
8482;SDS011;4278;42.668;23.312;2022-09-09T00:48:56;17.20;;;9.43;;
8482;SDS011;4278;42.668;23.312;2022-09-09T00:51:26;16.27;;;8.60;;
8482;SDS011;4278;42.668;23.312;2022-09-09T00:54:02;15.23;;;9.60;;
8482;SDS011;4278;42.668;23.312;2022-09-09T00:56:36;12.37;;;9.73;;
8482;SDS011;4278;42.668;23.312;2022-09-09T00:59:10;13.37;;;8.80;;
8482;SDS011;4278;42.668;23.312;2022-09-09T01:01:38;16.47;;;9.40;;
8482;SDS011;4278;42.668;23.312;2022-09-09T01:04:04;12.70;;;9.47;;
8482;SDS011;4278;42.668;23.312;2022-09-09T01:06:34;13.90;;;9.13;;
8482;SDS011;4278;42.668;23.312;2022-09-09T01:09:08;11.23;;;8.73;;
8482;SDS011;4278;42.668;23.312;2022-09-09T01:11:41;12.43;;;8.50;;
8482;SDS011;4278;42.668;23.312;2022-09-09T01:14:13;14.97;;;8.53;;
8482;SDS011;4278;42.668;23.312;2022-09-09T01:16:42;11.40;;;8.93;;
8482;SDS011;4278;42.668;23.312;2022-09-09T01:19:09;11.13;;;8.87;;
8482;SDS011;4278;42.668;23.312;2022-09-09T01:21:41;9.90;;;8.43;;
8482;SDS011;4278;42.668;23.312;2022-09-09T01:24:18;12.43;;;9.67;;
8482;SDS011;4278;42.668;23.312;2022-09-09T01:26:47;10.50;;;8.43;;
8482;SDS011;4278;42.668;23.312;2022-09-09T01:29:16;14.17;;;8.43;;
8482;SDS011;4278;42.668;23.312;2022-09-09T01:31:51;10.57;;;8.60;;
8482;SDS011;4278;42.668;23.312;2022-09-09T01:34:19;11.33;;;8.47;;
8482;SDS011;4278;42.668;23.312;2022-09-09T01:36:47;9.60;;;8.27;;
8482;SDS011;4278;42.668;23.312;2022-09-09T01:39:16;15.03;;;9.33;;
8482;SDS011;4278;42.668;23.312;2022-09-09T01:41:42;14.23;;;9.67;;
8482;SDS011;4278;42.668;23.312;2022-09-09T01:44:10;14.43;;;8.87;;
8482;SDS011;4278;42.668;23.312;2022-09-09T01:46:37;17.13;;;9.47;;
8482;SDS011;4278;42.668;23.312;2022-09-09T01:49:04;13.83;;;9.77;;
8482;SDS011;4278;42.668;23.312;2022-09-09T01:51:32;15.33;;;10.47;;
8482;SDS011;4278;42.668;23.312;2022-09-09T01:53:59;13.60;;;8.63;;
8482;SDS011;4278;42.668;23.312;2022-09-09T01:56:29;13.83;;;9.63;;
8482;SDS011;4278;42.668;23.312;2022-09-09T01:59:03;12.67;;;9.93;;
8482;SDS011;4278;42.668;23.312;2022-09-09T02:01:39;12.10;;;9.50;;
8482;SDS011;4278;42.668;23.312;2022-09-09T02:04:12;11.80;;;9.43;;
8482;SDS011;4278;42.668;23.312;2022-09-09T02:06:44;12.83;;;8.77;;
8482;SDS011;4278;42.668;23.312;2022-09-09T02:09:12;11.13;;;8.60;;
8482;SDS011;4278;42.668;23.312;2022-09-09T02:11:39;14.27;;;9.90;;
8482;SDS011;4278;42.668;23.312;2022-09-09T02:14:07;12.63;;;9.97;;
8482;SDS011;4278;42.668;23.312;2022-09-09T02:16:37;12.30;;;10.10;;
8482;SDS011;4278;42.668;23.312;2022-09-09T02:19:06;16.97;;;10.03;;
8482;SDS011;4278;42.668;23.312;2022-09-09T02:21:35;12.40;;;10.27;;
8482;SDS011;4278;42.668;23.312;2022-09-09T02:24:03;14.87;;;9.30;;
8482;SDS011;4278;42.668;23.312;2022-09-09T02:26:30;12.80;;;9.73;;
8482;SDS011;4278;42.668;23.312;2022-09-09T02:28:59;12.23;;;8.97;;
8482;SDS011;4278;42.668;23.312;2022-09-09T02:31:28;14.97;;;10.20;;
8482;SDS011;4278;42.668;23.312;2022-09-09T02:33:56;19.97;;;11.03;;
8482;SDS011;4278;42.668;23.312;2022-09-09T02:36:24;13.37;;;9.77;;
8482;SDS011;4278;42.668;23.312;2022-09-09T02:38:52;16.43;;;10.50;;
8482;SDS011;4278;42.668;23.312;2022-09-09T02:41:19;13.30;;;9.67;;
8482;SDS011;4278;42.668;23.312;2022-09-09T02:43:47;15.23;;;10.43;;
8482;SDS011;4278;42.668;23.312;2022-09-09T02:46:20;13.77;;;9.67;;
8482;SDS011;4278;42.668;23.312;2022-09-09T02:48:51;13.27;;;10.67;;
8482;SDS011;4278;42.668;23.312;2022-09-09T02:51:24;15.77;;;10.10;;
8482;SDS011;4278;42.668;23.312;2022-09-09T02:53:55;12.80;;;10.53;;
8482;SDS011;4278;42.668;23.312;2022-09-09T02:56:25;12.37;;;9.83;;
8482;SDS011;4278;42.668;23.312;2022-09-09T02:58:53;12.77;;;9.70;;
8482;SDS011;4278;42.668;23.312;2022-09-09T03:01:20;16.30;;;10.23;;
8482;SDS011;4278;42.668;23.312;2022-09-09T03:03:46;12.67;;;10.30;;
8482;SDS011;4278;42.668;23.312;2022-09-09T03:06:13;13.70;;;9.53;;
8482;SDS011;4278;42.668;23.312;2022-09-09T03:08:41;14.80;;;9.60;;
8482;SDS011;4278;42.668;23.312;2022-09-09T03:11:08;14.17;;;9.50;;
8482;SDS011;4278;42.668;23.312;2022-09-09T03:13:35;16.23;;;9.30;;
8482;SDS011;4278;42.668;23.312;2022-09-09T03:16:02;12.13;;;9.23;;
8482;SDS011;4278;42.668;23.312;2022-09-09T03:18:29;14.03;;;9.90;;
8482;SDS011;4278;42.668;23.312;2022-09-09T03:20:57;13.80;;;9.70;;
8482;SDS011;4278;42.668;23.312;2022-09-09T03:23:24;11.97;;;9.20;;
8482;SDS011;4278;42.668;23.312;2022-09-09T03:25:52;12.30;;;9.13;;
8482;SDS011;4278;42.668;23.312;2022-09-09T03:28:21;15.03;;;10.20;;
8482;SDS011;4278;42.668;23.312;2022-09-09T03:30:48;12.87;;;8.93;;
8482;SDS011;4278;42.668;23.312;2022-09-09T03:33:15;13.20;;;10.10;;
8482;SDS011;4278;42.668;23.312;2022-09-09T03:35:44;12.97;;;9.77;;
8482;SDS011;4278;42.668;23.312;2022-09-09T03:38:13;11.20;;;10.03;;
8482;SDS011;4278;42.668;23.312;2022-09-09T03:40:47;12.93;;;10.47;;
8482;SDS011;4278;42.668;23.312;2022-09-09T03:43:15;13.93;;;10.10;;
8482;SDS011;4278;42.668;23.312;2022-09-09T03:45:44;11.87;;;9.60;;
8482;SDS011;4278;42.668;23.312;2022-09-09T03:48:12;11.77;;;9.77;;
8482;SDS011;4278;42.668;23.312;2022-09-09T03:50:38;12.10;;;9.97;;
8482;SDS011;4278;42.668;23.312;2022-09-09T03:53:05;12.97;;;9.77;;
8482;SDS011;4278;42.668;23.312;2022-09-09T03:55:31;15.17;;;10.73;;
8482;SDS011;4278;42.668;23.312;2022-09-09T03:57:58;12.40;;;9.83;;
8482;SDS011;4278;42.668;23.312;2022-09-09T04:00:26;11.27;;;9.47;;
8482;SDS011;4278;42.668;23.312;2022-09-09T04:02:54;13.03;;;9.57;;
8482;SDS011;4278;42.668;23.312;2022-09-09T04:05:22;11.03;;;9.83;;
8482;SDS011;4278;42.668;23.312;2022-09-09T04:07:49;13.33;;;10.23;;
8482;SDS011;4278;42.668;23.312;2022-09-09T04:10:16;15.20;;;10.27;;
8482;SDS011;4278;42.668;23.312;2022-09-09T04:12:42;16.90;;;11.10;;
8482;SDS011;4278;42.668;23.312;2022-09-09T04:15:09;14.20;;;10.10;;
8482;SDS011;4278;42.668;23.312;2022-09-09T04:17:37;12.90;;;10.20;;
8482;SDS011;4278;42.668;23.312;2022-09-09T04:20:04;14.13;;;10.00;;
8482;SDS011;4278;42.668;23.312;2022-09-09T04:22:32;16.27;;;10.07;;
8482;SDS011;4278;42.668;23.312;2022-09-09T04:24:59;13.40;;;10.63;;
8482;SDS011;4278;42.668;23.312;2022-09-09T04:27:25;18.27;;;11.37;;
8482;SDS011;4278;42.668;23.312;2022-09-09T04:29:52;18.73;;;11.30;;
8482;SDS011;4278;42.668;23.312;2022-09-09T04:32:18;16.87;;;10.63;;
8482;SDS011;4278;42.668;23.312;2022-09-09T04:34:46;13.60;;;10.60;;
8482;SDS011;4278;42.668;23.312;2022-09-09T04:37:13;14.07;;;9.63;;
8482;SDS011;4278;42.668;23.312;2022-09-09T04:39:40;15.43;;;10.17;;
8482;SDS011;4278;42.668;23.312;2022-09-09T04:42:06;13.70;;;10.60;;
8482;SDS011;4278;42.668;23.312;2022-09-09T04:44:33;13.57;;;11.27;;
8482;SDS011;4278;42.668;23.312;2022-09-09T04:47:00;14.27;;;10.30;;
8482;SDS011;4278;42.668;23.312;2022-09-09T04:49:26;17.63;;;10.80;;
8482;SDS011;4278;42.668;23.312;2022-09-09T04:51:54;15.47;;;11.20;;
8482;SDS011;4278;42.668;23.312;2022-09-09T04:54:21;15.47;;;10.57;;
8482;SDS011;4278;42.668;23.312;2022-09-09T04:56:49;13.77;;;11.40;;
8482;SDS011;4278;42.668;23.312;2022-09-09T04:59:16;17.43;;;11.23;;
8482;SDS011;4278;42.668;23.312;2022-09-09T05:01:43;14.10;;;10.23;;
8482;SDS011;4278;42.668;23.312;2022-09-09T05:04:09;28.67;;;12.00;;
8482;SDS011;4278;42.668;23.312;2022-09-09T05:06:36;14.93;;;11.33;;
8482;SDS011;4278;42.668;23.312;2022-09-09T05:09:04;15.50;;;11.93;;
8482;SDS011;4278;42.668;23.312;2022-09-09T05:11:31;17.07;;;11.37;;
8482;SDS011;4278;42.668;23.312;2022-09-09T05:14:01;15.80;;;11.30;;
8482;SDS011;4278;42.668;23.312;2022-09-09T05:16:27;14.27;;;11.37;;
8482;SDS011;4278;42.668;23.312;2022-09-09T05:18:54;16.40;;;11.37;;
8482;SDS011;4278;42.668;23.312;2022-09-09T05:21:22;14.83;;;10.70;;
8482;SDS011;4278;42.668;23.312;2022-09-09T05:23:50;13.57;;;11.43;;
8482;SDS011;4278;42.668;23.312;2022-09-09T05:26:21;14.67;;;10.67;;
8482;SDS011;4278;42.668;23.312;2022-09-09T05:28:48;13.88;;;10.57;;
8482;SDS011;4278;42.668;23.312;2022-09-09T05:31:15;13.33;;;10.73;;
8482;SDS011;4278;42.668;23.312;2022-09-09T05:33:43;15.73;;;11.10;;
8482;SDS011;4278;42.668;23.312;2022-09-09T05:36:11;16.60;;;11.35;;
8482;SDS011;4278;42.668;23.312;2022-09-09T05:38:38;18.25;;;11.60;;
8482;SDS011;4278;42.668;23.312;2022-09-09T05:41:06;15.25;;;11.32;;
8482;SDS011;4278;42.668;23.312;2022-09-09T05:43:34;14.18;;;10.45;;
8482;SDS011;4278;42.668;23.312;2022-09-09T05:46:02;13.30;;;10.52;;
8482;SDS011;4278;42.668;23.312;2022-09-09T05:48:29;16.60;;;10.55;;
8482;SDS011;4278;42.668;23.312;2022-09-09T05:50:57;18.00;;;11.13;;
8482;SDS011;4278;42.668;23.312;2022-09-09T05:53:23;14.18;;;11.48;;
8482;SDS011;4278;42.668;23.312;2022-09-09T05:55:50;14.32;;;10.50;;
8482;SDS011;4278;42.668;23.312;2022-09-09T05:58:17;18.98;;;9.45;;
8482;SDS011;4278;42.668;23.312;2022-09-09T06:00:45;14.77;;;9.20;;
8482;SDS011;4278;42.668;23.312;2022-09-09T06:03:12;13.38;;;9.15;;
8482;SDS011;4278;42.668;23.312;2022-09-09T06:05:38;11.57;;;9.45;;
8482;SDS011;4278;42.668;23.312;2022-09-09T06:08:05;17.35;;;8.85;;
8482;SDS011;4278;42.668;23.312;2022-09-09T06:10:32;11.93;;;9.05;;
8482;SDS011;4278;42.668;23.312;2022-09-09T06:12:59;19.50;;;8.95;;
8482;SDS011;4278;42.668;23.312;2022-09-09T06:15:25;13.40;;;8.57;;
8482;SDS011;4278;42.668;23.312;2022-09-09T06:17:57;8.82;;;7.40;;
8482;SDS011;4278;42.668;23.312;2022-09-09T06:20:23;10.23;;;7.93;;
8482;SDS011;4278;42.668;23.312;2022-09-09T06:22:50;12.77;;;8.05;;
8482;SDS011;4278;42.668;23.312;2022-09-09T06:25:17;14.68;;;8.18;;
8482;SDS011;4278;42.668;23.312;2022-09-09T06:27:47;10.07;;;7.97;;
8482;SDS011;4278;42.668;23.312;2022-09-09T06:30:14;16.00;;;7.40;;
8482;SDS011;4278;42.668;23.312;2022-09-09T06:32:42;9.20;;;6.93;;
8482;SDS011;4278;42.668;23.312;2022-09-09T06:35:10;11.18;;;7.20;;
8482;SDS011;4278;42.668;23.312;2022-09-09T06:37:36;8.77;;;7.60;;
8482;SDS011;4278;42.668;23.312;2022-09-09T06:40:03;10.10;;;7.75;;
8482;SDS011;4278;42.668;23.312;2022-09-09T06:42:30;9.32;;;7.10;;
8482;SDS011;4278;42.668;23.312;2022-09-09T06:44:56;11.68;;;7.13;;
8482;SDS011;4278;42.668;23.312;2022-09-09T06:47:23;12.10;;;6.35;;
8482;SDS011;4278;42.668;23.312;2022-09-09T06:49:49;10.18;;;7.05;;
8482;SDS011;4278;42.668;23.312;2022-09-09T06:52:17;8.27;;;6.45;;
8482;SDS011;4278;42.668;23.312;2022-09-09T06:54:44;10.10;;;7.30;;
8482;SDS011;4278;42.668;23.312;2022-09-09T06:57:11;14.70;;;7.35;;
8482;SDS011;4278;42.668;23.312;2022-09-09T06:59:37;12.48;;;6.50;;
8482;SDS011;4278;42.668;23.312;2022-09-09T07:02:04;7.10;;;6.22;;
8482;SDS011;4278;42.668;23.312;2022-09-09T07:04:30;11.10;;;7.75;;
8482;SDS011;4278;42.668;23.312;2022-09-09T07:06:57;8.32;;;6.75;;
8482;SDS011;4278;42.668;23.312;2022-09-09T07:09:25;7.80;;;6.90;;
8482;SDS011;4278;42.668;23.312;2022-09-09T07:11:54;14.75;;;8.05;;
8482;SDS011;4278;42.668;23.312;2022-09-09T07:14:24;10.10;;;7.38;;
8482;SDS011;4278;42.668;23.312;2022-09-09T07:16:51;9.70;;;7.47;;
8482;SDS011;4278;42.668;23.312;2022-09-09T07:19:17;15.00;;;8.05;;
8482;SDS011;4278;42.668;23.312;2022-09-09T07:21:44;8.45;;;6.97;;
8482;SDS011;4278;42.668;23.312;2022-09-09T07:24:11;9.75;;;7.15;;
8482;SDS011;4278;42.668;23.312;2022-09-09T07:26:39;9.98;;;6.70;;
8482;SDS011;4278;42.668;23.312;2022-09-09T07:29:07;10.30;;;7.20;;
8482;SDS011;4278;42.668;23.312;2022-09-09T07:31:34;9.32;;;6.82;;
8482;SDS011;4278;42.668;23.312;2022-09-09T07:34:01;13.95;;;7.35;;
8482;SDS011;4278;42.668;23.312;2022-09-09T07:36:29;8.43;;;6.80;;
8482;SDS011;4278;42.668;23.312;2022-09-09T07:38:56;8.57;;;6.30;;
8482;SDS011;4278;42.668;23.312;2022-09-09T07:41:24;8.40;;;6.10;;
8482;SDS011;4278;42.668;23.312;2022-09-09T07:43:52;12.70;;;6.78;;
8482;SDS011;4278;42.668;23.312;2022-09-09T07:46:20;11.13;;;6.40;;
8482;SDS011;4278;42.668;23.312;2022-09-09T07:48:48;9.05;;;6.25;;
8482;SDS011;4278;42.668;23.312;2022-09-09T07:51:16;10.80;;;6.25;;
8482;SDS011;4278;42.668;23.312;2022-09-09T07:53:44;9.68;;;6.13;;
8482;SDS011;4278;42.668;23.312;2022-09-09T07:56:12;10.65;;;5.70;;
8482;SDS011;4278;42.668;23.312;2022-09-09T07:58:39;5.72;;;4.85;;
8482;SDS011;4278;42.668;23.312;2022-09-09T08:01:08;8.45;;;5.65;;
8482;SDS011;4278;42.668;23.312;2022-09-09T08:03:37;7.72;;;6.25;;
8482;SDS011;4278;42.668;23.312;2022-09-09T08:06:04;9.02;;;6.38;;
8482;SDS011;4278;42.668;23.312;2022-09-09T08:08:32;8.25;;;5.88;;
8482;SDS011;4278;42.668;23.312;2022-09-09T08:11:02;6.80;;;5.65;;
8482;SDS011;4278;42.668;23.312;2022-09-09T08:13:30;7.57;;;5.68;;
8482;SDS011;4278;42.668;23.312;2022-09-09T08:16:03;9.40;;;5.50;;
8482;SDS011;4278;42.668;23.312;2022-09-09T08:18:31;8.57;;;5.82;;
8482;SDS011;4278;42.668;23.312;2022-09-09T08:21:04;5.97;;;5.35;;
8482;SDS011;4278;42.668;23.312;2022-09-09T08:23:30;10.00;;;5.65;;
8482;SDS011;4278;42.668;23.312;2022-09-09T08:26:02;9.63;;;5.35;;
8482;SDS011;4278;42.668;23.312;2022-09-09T08:28:29;6.25;;;5.40;;
8482;SDS011;4278;42.668;23.312;2022-09-09T08:31:04;8.18;;;5.80;;
8482;SDS011;4278;42.668;23.312;2022-09-09T08:33:32;8.32;;;5.85;;
8482;SDS011;4278;42.668;23.312;2022-09-09T08:35:59;7.38;;;5.63;;
8482;SDS011;4278;42.668;23.312;2022-09-09T08:38:25;26.55;;;16.00;;
8482;SDS011;4278;42.668;23.312;2022-09-09T08:40:53;7.85;;;5.60;;
8482;SDS011;4278;42.668;23.312;2022-09-09T08:43:24;12.63;;;5.60;;
8482;SDS011;4278;42.668;23.312;2022-09-09T08:45:55;9.57;;;5.20;;
8482;SDS011;4278;42.668;23.312;2022-09-09T08:48:31;9.32;;;5.57;;
8482;SDS011;4278;42.668;23.312;2022-09-09T08:51:03;7.15;;;4.72;;
8482;SDS011;4278;42.668;23.312;2022-09-09T08:53:35;27.23;;;14.95;;
8482;SDS011;4278;42.668;23.312;2022-09-09T08:56:08;12.00;;;7.72;;
8482;SDS011;4278;42.668;23.312;2022-09-09T08:58:38;15.57;;;11.13;;
8482;SDS011;4278;42.668;23.312;2022-09-09T09:01:14;7.95;;;5.00;;
8482;SDS011;4278;42.668;23.312;2022-09-09T09:03:48;7.72;;;5.30;;
8482;SDS011;4278;42.668;23.312;2022-09-09T09:06:22;9.52;;;4.90;;
8482;SDS011;4278;42.668;23.312;2022-09-09T09:08:54;8.15;;;4.78;;
8482;SDS011;4278;42.668;23.312;2022-09-09T09:11:21;9.10;;;4.80;;
8482;SDS011;4278;42.668;23.312;2022-09-09T09:13:48;5.93;;;4.72;;
8482;SDS011;4278;42.668;23.312;2022-09-09T09:16:19;7.20;;;4.68;;
8482;SDS011;4278;42.668;23.312;2022-09-09T09:18:48;7.90;;;4.55;;
8482;SDS011;4278;42.668;23.312;2022-09-09T09:21:17;7.03;;;5.68;;
8482;SDS011;4278;42.668;23.312;2022-09-09T09:23:49;6.28;;;4.93;;
8482;SDS011;4278;42.668;23.312;2022-09-09T09:26:20;6.43;;;5.18;;
8482;SDS011;4278;42.668;23.312;2022-09-09T09:28:48;9.30;;;5.53;;
8482;SDS011;4278;42.668;23.312;2022-09-09T09:31:15;6.85;;;4.80;;
8482;SDS011;4278;42.668;23.312;2022-09-09T09:33:45;14.00;;;6.70;;
8482;SDS011;4278;42.668;23.312;2022-09-09T09:36:13;16.92;;;7.28;;
8482;SDS011;4278;42.668;23.312;2022-09-09T09:38:52;13.13;;;5.80;;
8482;SDS011;4278;42.668;23.312;2022-09-09T09:41:33;6.75;;;4.90;;
8482;SDS011;4278;42.668;23.312;2022-09-09T09:44:00;22.15;;;7.43;;
8482;SDS011;4278;42.668;23.312;2022-09-09T09:46:27;12.27;;;6.07;;
8482;SDS011;4278;42.668;23.312;2022-09-09T09:48:57;20.88;;;8.82;;
8482;SDS011;4278;42.668;23.312;2022-09-09T09:51:24;7.70;;;5.95;;
8482;SDS011;4278;42.668;23.312;2022-09-09T09:53:52;11.85;;;5.50;;
8482;SDS011;4278;42.668;23.312;2022-09-09T09:56:26;9.15;;;5.65;;
8482;SDS011;4278;42.668;23.312;2022-09-09T09:58:53;8.43;;;5.50;;
8482;SDS011;4278;42.668;23.312;2022-09-09T10:01:22;6.90;;;5.38;;
8482;SDS011;4278;42.668;23.312;2022-09-09T10:03:50;11.70;;;6.15;;
8482;SDS011;4278;42.668;23.312;2022-09-09T10:06:17;6.82;;;5.68;;
8482;SDS011;4278;42.668;23.312;2022-09-09T10:08:44;8.93;;;6.18;;
8482;SDS011;4278;42.668;23.312;2022-09-09T10:11:23;9.50;;;6.63;;
8482;SDS011;4278;42.668;23.312;2022-09-09T10:13:54;13.77;;;6.00;;
8482;SDS011;4278;42.668;23.312;2022-09-09T10:16:25;13.18;;;6.38;;
8482;SDS011;4278;42.668;23.312;2022-09-09T10:18:58;11.48;;;6.63;;
8482;SDS011;4278;42.668;23.312;2022-09-09T10:21:30;12.23;;;7.95;;
8482;SDS011;4278;42.668;23.312;2022-09-09T10:24:02;14.15;;;8.63;;
8482;SDS011;4278;42.668;23.312;2022-09-09T10:26:38;10.18;;;7.18;;
8482;SDS011;4278;42.668;23.312;2022-09-09T10:29:18;12.65;;;6.80;;
8482;SDS011;4278;42.668;23.312;2022-09-09T10:31:50;14.20;;;7.47;;
8482;SDS011;4278;42.668;23.312;2022-09-09T10:34:24;15.95;;;9.55;;
8482;SDS011;4278;42.668;23.312;2022-09-09T10:37:00;9.55;;;6.88;;
8482;SDS011;4278;42.668;23.312;2022-09-09T10:39:32;15.70;;;11.45;;
8482;SDS011;4278;42.668;23.312;2022-09-09T10:42:03;17.95;;;10.50;;
8482;SDS011;4278;42.668;23.312;2022-09-09T10:44:37;14.07;;;8.60;;
8482;SDS011;4278;42.668;23.312;2022-09-09T10:47:16;9.18;;;6.25;;
8482;SDS011;4278;42.668;23.312;2022-09-09T10:49:54;10.23;;;5.90;;
8482;SDS011;4278;42.668;23.312;2022-09-09T10:52:22;12.98;;;8.68;;
8482;SDS011;4278;42.668;23.312;2022-09-09T10:54:53;13.57;;;8.00;;
8482;SDS011;4278;42.668;23.312;2022-09-09T10:57:27;14.50;;;9.23;;
8482;SDS011;4278;42.668;23.312;2022-09-09T10:59:57;12.40;;;9.40;;
8482;SDS011;4278;42.668;23.312;2022-09-09T11:02:26;14.52;;;7.50;;
8482;SDS011;4278;42.668;23.312;2022-09-09T11:04:54;9.70;;;6.68;;
8482;SDS011;4278;42.668;23.312;2022-09-09T11:07:24;21.98;;;13.05;;
8482;SDS011;4278;42.668;23.312;2022-09-09T11:09:52;16.98;;;11.57;;
8482;SDS011;4278;42.668;23.312;2022-09-09T11:12:20;17.17;;;9.52;;
8482;SDS011;4278;42.668;23.312;2022-09-09T11:14:50;16.13;;;10.05;;
8482;SDS011;4278;42.668;23.312;2022-09-09T11:17:20;11.63;;;7.80;;
8482;SDS011;4278;42.668;23.312;2022-09-09T11:19:48;14.00;;;7.57;;
8482;SDS011;4278;42.668;23.312;2022-09-09T11:22:16;14.77;;;7.80;;
8482;SDS011;4278;42.668;23.312;2022-09-09T11:24:47;14.38;;;7.57;;
8482;SDS011;4278;42.668;23.312;2022-09-09T11:27:17;16.23;;;8.20;;
8482;SDS011;4278;42.668;23.312;2022-09-09T11:35:29;11.45;;;6.95;;
8482;SDS011;4278;42.668;23.312;2022-09-09T11:38:12;12.20;;;7.03;;
8482;SDS011;4278;42.668;23.312;2022-09-09T11:40:43;12.93;;;7.43;;
8482;SDS011;4278;42.668;23.312;2022-09-09T11:43:10;8.10;;;6.75;;
8482;SDS011;4278;42.668;23.312;2022-09-09T11:45:39;9.90;;;7.15;;
8482;SDS011;4278;42.668;23.312;2022-09-09T11:48:21;11.55;;;7.35;;
8482;SDS011;4278;42.668;23.312;2022-09-09T11:50:58;11.13;;;7.20;;
8482;SDS011;4278;42.668;23.312;2022-09-09T11:53:25;17.42;;;7.68;;
8482;SDS011;4278;42.668;23.312;2022-09-09T11:56:02;14.07;;;7.45;;
8482;SDS011;4278;42.668;23.312;2022-09-09T11:58:30;15.57;;;7.25;;
8482;SDS011;4278;42.668;23.312;2022-09-09T12:01:00;12.15;;;7.15;;
8482;SDS011;4278;42.668;23.312;2022-09-09T12:03:32;10.55;;;7.90;;
8482;SDS011;4278;42.668;23.312;2022-09-09T12:06:08;14.73;;;7.53;;
8482;SDS011;4278;42.668;23.312;2022-09-09T12:08:35;10.63;;;7.43;;
8482;SDS011;4278;42.668;23.312;2022-09-09T12:11:02;12.13;;;7.45;;
8482;SDS011;4278;42.668;23.312;2022-09-09T12:13:29;11.82;;;7.13;;
8482;SDS011;4278;42.668;23.312;2022-09-09T12:15:57;8.73;;;7.50;;
8482;SDS011;4278;42.668;23.312;2022-09-09T12:18:24;11.18;;;7.28;;
8482;SDS011;4278;42.668;23.312;2022-09-09T12:20:53;11.20;;;7.88;;
8482;SDS011;4278;42.668;23.312;2022-09-09T12:23:26;14.32;;;6.93;;
8482;SDS011;4278;42.668;23.312;2022-09-09T12:25:57;10.02;;;6.35;;
8482;SDS011;4278;42.668;23.312;2022-09-09T12:28:25;11.10;;;7.07;;
8482;SDS011;4278;42.668;23.312;2022-09-09T12:30:55;11.73;;;7.05;;
8482;SDS011;4278;42.668;23.312;2022-09-09T12:33:24;11.32;;;6.53;;
8482;SDS011;4278;42.668;23.312;2022-09-09T12:35:59;14.95;;;7.43;;
8482;SDS011;4278;42.668;23.312;2022-09-09T12:38:29;13.43;;;7.03;;
8482;SDS011;4278;42.668;23.312;2022-09-09T12:40:57;14.82;;;7.50;;
8482;SDS011;4278;42.668;23.312;2022-09-09T12:43:24;12.25;;;6.50;;
8482;SDS011;4278;42.668;23.312;2022-09-09T12:45:52;9.43;;;6.53;;
8482;SDS011;4278;42.668;23.312;2022-09-09T12:48:24;9.95;;;6.97;;
8482;SDS011;4278;42.668;23.312;2022-09-09T12:50:52;13.15;;;7.47;;
8482;SDS011;4278;42.668;23.312;2022-09-09T12:53:21;11.88;;;7.10;;
8482;SDS011;4278;42.668;23.312;2022-09-09T12:55:51;12.82;;;7.53;;
8482;SDS011;4278;42.668;23.312;2022-09-09T12:58:18;13.88;;;7.93;;
8482;SDS011;4278;42.668;23.312;2022-09-09T13:00:48;12.15;;;7.45;;
8482;SDS011;4278;42.668;23.312;2022-09-09T13:03:17;13.52;;;7.78;;
8482;SDS011;4278;42.668;23.312;2022-09-09T13:05:45;11.18;;;7.43;;
8482;SDS011;4278;42.668;23.312;2022-09-09T13:08:13;12.95;;;6.90;;
8482;SDS011;4278;42.668;23.312;2022-09-09T13:10:40;13.38;;;7.43;;
8482;SDS011;4278;42.668;23.312;2022-09-09T13:13:14;11.23;;;7.40;;
8482;SDS011;4278;42.668;23.312;2022-09-09T13:15:47;17.77;;;7.07;;
8482;SDS011;4278;42.668;23.312;2022-09-09T13:18:14;11.70;;;7.57;;
8482;SDS011;4278;42.668;23.312;2022-09-09T13:20:45;11.32;;;7.20;;
8482;SDS011;4278;42.668;23.312;2022-09-09T13:23:12;10.00;;;7.18;;
8482;SDS011;4278;42.668;23.312;2022-09-09T13:25:39;13.88;;;7.75;;
8482;SDS011;4278;42.668;23.312;2022-09-09T13:28:20;11.27;;;7.85;;
8482;SDS011;4278;42.668;23.312;2022-09-09T13:30:54;12.25;;;7.68;;
8482;SDS011;4278;42.668;23.312;2022-09-09T13:33:28;11.85;;;7.35;;
8482;SDS011;4278;42.668;23.312;2022-09-09T13:35:56;11.32;;;7.40;;
8482;SDS011;4278;42.668;23.312;2022-09-09T13:38:24;10.70;;;6.68;;
8482;SDS011;4278;42.668;23.312;2022-09-09T13:40:54;12.20;;;6.95;;
8482;SDS011;4278;42.668;23.312;2022-09-09T13:43:28;11.50;;;7.53;;
8482;SDS011;4278;42.668;23.312;2022-09-09T13:45:57;10.82;;;6.30;;
8482;SDS011;4278;42.668;23.312;2022-09-09T13:48:24;13.85;;;6.97;;
8482;SDS011;4278;42.668;23.312;2022-09-09T13:50:55;11.45;;;6.57;;
8482;SDS011;4278;42.668;23.312;2022-09-09T13:53:23;9.15;;;6.30;;
8482;SDS011;4278;42.668;23.312;2022-09-09T13:55:50;8.93;;;6.00;;
8482;SDS011;4278;42.668;23.312;2022-09-09T13:58:17;10.10;;;6.55;;
8482;SDS011;4278;42.668;23.312;2022-09-09T14:00:45;13.40;;;7.97;;
8482;SDS011;4278;42.668;23.312;2022-09-09T14:03:12;11.70;;;7.00;;
8482;SDS011;4278;42.668;23.312;2022-09-09T14:05:39;9.23;;;7.13;;
8482;SDS011;4278;42.668;23.312;2022-09-09T14:08:05;8.82;;;6.75;;
8482;SDS011;4278;42.668;23.312;2022-09-09T14:10:32;14.07;;;7.13;;
8482;SDS011;4278;42.668;23.312;2022-09-09T14:13:00;12.05;;;6.85;;
8482;SDS011;4278;42.668;23.312;2022-09-09T14:15:27;13.88;;;9.07;;
8482;SDS011;4278;42.668;23.312;2022-09-09T14:17:55;15.02;;;7.60;;
8482;SDS011;4278;42.668;23.312;2022-09-09T14:20:24;9.88;;;7.55;;
8482;SDS011;4278;42.668;23.312;2022-09-09T14:22:50;12.98;;;7.38;;
8482;SDS011;4278;42.668;23.312;2022-09-09T14:25:18;17.95;;;8.57;;
8482;SDS011;4278;42.668;23.312;2022-09-09T14:27:45;15.68;;;7.65;;
8482;SDS011;4278;42.668;23.312;2022-09-09T14:30:12;17.88;;;6.82;;
8482;SDS011;4278;42.668;23.312;2022-09-09T14:32:38;12.25;;;8.00;;
8482;SDS011;4278;42.668;23.312;2022-09-09T14:35:07;10.57;;;7.22;;
8482;SDS011;4278;42.668;23.312;2022-09-09T14:37:34;16.40;;;8.93;;
8482;SDS011;4278;42.668;23.312;2022-09-09T14:40:00;9.77;;;7.15;;
8482;SDS011;4278;42.668;23.312;2022-09-09T14:42:27;12.07;;;8.15;;
8482;SDS011;4278;42.668;23.312;2022-09-09T14:44:55;8.13;;;6.95;;
8482;SDS011;4278;42.668;23.312;2022-09-09T14:47:21;12.05;;;7.82;;
8482;SDS011;4278;42.668;23.312;2022-09-09T14:49:49;13.00;;;8.73;;
8482;SDS011;4278;42.668;23.312;2022-09-09T14:52:18;14.18;;;7.53;;
8482;SDS011;4278;42.668;23.312;2022-09-09T14:54:44;9.98;;;7.47;;
8482;SDS011;4278;42.668;23.312;2022-09-09T14:57:11;14.85;;;7.30;;
8482;SDS011;4278;42.668;23.312;2022-09-09T14:59:37;12.40;;;7.40;;
8482;SDS011;4278;42.668;23.312;2022-09-09T15:02:04;11.93;;;7.68;;
8482;SDS011;4278;42.668;23.312;2022-09-09T15:04:31;13.05;;;8.32;;